Terminal Aerodrome Forecast
Issued by NWS

Home | Current Version | Previous Version | Text Only | Print | Product List | Glossary On
Versions: 1 2 3 4 5 6 7 8 9 10 11 12
000
FTUS42 TJSJ 261749
TAFKPK
TAF
TKPK 261749Z 2618/2718 08013KT P6SM -SHRA VCSH SCT018 SCT035
     FM262300 06010KT P6SM SCT018
     FM271300 08015KT P6SM FEW022 SCT035=

USA.gov is the U.S. government's official web portal to all federal, state and local government web resources and services.